createdAt,value
2024-05-09T00:01:00.291Z,56.17
2024-05-09T00:06:21.077Z,56.36
2024-05-09T00:11:27.809Z,56.66
2024-05-09T00:16:34.787Z,56.84
2024-05-09T00:21:45.448Z,57.25
2024-05-09T00:26:52.133Z,57.30
2024-05-09T00:31:58.900Z,57.42
2024-05-09T00:37:08.538Z,57.37
2024-05-09T00:42:15.730Z,57.77
2024-05-09T00:47:24.274Z,57.77
2024-05-09T00:52:32.333Z,57.73
2024-05-09T00:57:39.736Z,58.13
2024-05-09T01:02:46.891Z,58.31
2024-05-09T01:07:53.977Z,58.65
2024-05-09T01:13:00.819Z,58.90
2024-05-09T01:18:11.519Z,59.29
2024-05-09T01:23:17.895Z,59.56
2024-05-09T01:28:24.730Z,59.63
2024-05-09T01:33:31.514Z,59.75
2024-05-09T01:38:38.951Z,60.09
2024-05-09T01:43:45.645Z,60.41
2024-05-09T01:48:52.572Z,60.74
2024-05-09T01:53:59.254Z,60.86
2024-05-09T01:59:06.660Z,61.11
2024-05-09T02:04:13.752Z,61.54
2024-05-09T02:09:20.796Z,61.73
2024-05-09T02:14:27.582Z,62.14
2024-05-09T02:19:34.582Z,62.36
2024-05-09T02:24:41.380Z,62.26
2024-05-09T02:29:58.473Z,62.62
2024-05-09T02:35:09.154Z,62.72
2024-05-09T02:40:25.156Z,63.04
2024-05-09T02:45:35.806Z,63.89
2024-05-09T02:50:44.039Z,64.04
2024-05-09T02:56:17.786Z,64.38
2024-05-09T03:01:45.427Z,64.98
2024-05-09T03:06:55.383Z,65.19
2024-05-09T03:12:02.507Z,65.61
2024-05-09T03:17:12.119Z,65.91
2024-05-09T03:22:18.896Z,66.18
2024-05-09T03:27:25.652Z,66.47
2024-05-09T03:32:32.403Z,66.68
2024-05-09T03:37:39.397Z,67.23
2024-05-09T03:42:47.943Z,67.48
2024-05-09T03:47:54.802Z,67.79
2024-05-09T03:53:02.258Z,68.10
2024-05-09T03:58:09.234Z,68.31
2024-05-09T04:03:16.369Z,68.58
2024-05-09T04:08:23.350Z,68.98
2024-05-09T04:13:32.434Z,69.05
2024-05-09T04:18:39.613Z,69.54
2024-05-09T04:23:46.494Z,69.62
2024-05-09T04:28:53.206Z,69.75
2024-05-09T04:34:01.999Z,69.60
2024-05-09T04:39:08.718Z,69.13
2024-05-09T04:44:15.494Z,68.82
2024-05-09T04:49:23.379Z,68.41
2024-05-09T04:54:36.020Z,68.67
2024-05-09T04:59:43.814Z,68.46
2024-05-09T05:04:50.641Z,68.03
2024-05-09T05:09:57.420Z,67.64
2024-05-09T05:15:04.158Z,67.73
2024-05-09T05:20:15.247Z,67.73
2024-05-09T05:25:25.924Z,67.58
2024-05-09T05:30:34.784Z,67.44
2024-05-09T05:35:42.777Z,67.51
2024-05-09T05:40:49.695Z,67.37
2024-05-09T05:45:59.728Z,67.13
2024-05-09T05:51:07.720Z,67.01
2024-05-09T05:56:14.499Z,66.81
2024-05-09T06:01:21.151Z,66.40
2024-05-09T06:06:28.155Z,65.93
2024-05-09T06:11:35.348Z,65.23
2024-05-09T06:16:42.026Z,65.09
2024-05-09T06:21:48.614Z,65.06
2024-05-09T06:26:55.557Z,64.80
2024-05-09T06:32:05.463Z,64.25
2024-05-09T06:37:12.543Z,63.91
2024-05-09T06:42:19.222Z,63.30
2024-05-09T06:47:25.999Z,62.72
2024-05-09T06:52:33.237Z,62.67
2024-05-09T06:57:42.960Z,62.42
2024-05-09T07:02:50.204Z,61.96
2024-05-09T07:07:57.519Z,60.42
2024-05-09T07:13:04.449Z,59.79
2024-05-09T07:18:17.804Z,59.58
2024-05-09T07:23:25.730Z,58.76
2024-05-09T07:28:32.698Z,58.50
2024-05-09T07:33:39.377Z,56.15
2024-05-09T07:38:46.110Z,52.89
2024-05-09T07:43:52.707Z,51.98
2024-05-09T07:50:35.806Z,50.70
2024-05-09T07:54:26.097Z,51.14
2024-05-09T07:59:36.062Z,49.76
2024-05-09T08:04:44.383Z,49.28
2024-05-09T08:09:52.294Z,50.09
2024-05-09T08:14:59.460Z,47.57
2024-05-09T08:20:07.640Z,47.48
2024-05-09T08:25:15.507Z,47.77
2024-05-09T08:30:30.098Z,46.39
2024-05-09T08:35:43.192Z,46.81
2024-05-09T08:40:50.680Z,47.49
2024-05-09T08:45:59.862Z,47.53
2024-05-09T08:51:08.548Z,47.26
2024-05-09T08:56:15.768Z,46.70
2024-05-09T09:01:23.513Z,46.55
2024-05-09T09:06:35.731Z,46.28
2024-05-09T09:11:48.932Z,45.25
2024-05-09T09:16:56.488Z,45.99
2024-05-09T09:22:03.161Z,44.84
2024-05-09T09:27:09.876Z,44.94
2024-05-09T09:32:16.718Z,44.43
2024-05-09T09:37:27.891Z,44.63
2024-05-09T09:42:35.353Z,44.17
2024-05-09T09:47:44.045Z,44.85
2024-05-09T09:52:51.373Z,44.79
2024-05-09T09:57:58.431Z,41.75
2024-05-09T10:03:05.306Z,42.89
2024-05-09T10:08:15.893Z,42.25
2024-05-09T10:13:33.598Z,42.01
2024-05-09T10:18:41.843Z,42.11
2024-05-09T10:23:59.884Z,40.73
2024-05-09T10:29:15.369Z,40.38
2024-05-09T10:34:24.088Z,40.76
2024-05-09T10:39:39.917Z,38.06
2024-05-09T10:44:50.464Z,39.66
2024-05-09T10:50:00.294Z,39.21
2024-05-09T10:55:08.086Z,39.97
2024-05-09T11:00:23.352Z,39.88
2024-05-09T11:05:39.020Z,38.63
2024-05-09T11:10:47.213Z,38.63
2024-05-09T11:15:54.700Z,39.43
2024-05-09T11:21:02.182Z,38.15
2024-05-09T11:26:10.814Z,37.33
2024-05-09T11:31:20.833Z,37.19
2024-05-09T11:36:27.900Z,36.71
2024-05-09T11:41:35.880Z,36.97
2024-05-09T11:46:43.942Z,36.35
2024-05-09T11:51:51.670Z,35.66
2024-05-09T11:57:02.960Z,35.81
2024-05-09T12:02:10.115Z,34.80
2024-05-09T12:07:18.649Z,34.95
2024-05-09T12:12:25.752Z,34.46
2024-05-09T12:17:32.549Z,34.68
2024-05-09T12:22:39.382Z,34.77
2024-05-09T12:27:46.193Z,33.83
2024-05-09T12:32:53.452Z,33.09
2024-05-09T12:38:00.637Z,33.87
2024-05-09T12:43:09.283Z,33.72
2024-05-09T12:48:17.187Z,33.75
2024-05-09T12:53:24.232Z,33.87
2024-05-09T12:58:30.987Z,33.04
2024-05-09T13:03:38.029Z,31.22
2024-05-09T13:08:45.084Z,30.48
2024-05-09T13:13:52.666Z,28.76
2024-05-09T13:18:59.495Z,29.20
2024-05-09T13:24:10.762Z,28.10
2024-05-09T13:29:17.424Z,27.97
2024-05-09T13:34:24.409Z,27.81
2024-05-09T13:39:31.037Z,27.07
2024-05-09T13:44:37.982Z,25.73
2024-05-09T13:49:44.761Z,25.93
2024-05-09T13:54:51.430Z,25.66
2024-05-09T13:59:58.177Z,24.89
2024-05-09T14:05:12.273Z,24.66
2024-05-09T14:10:26.232Z,24.63
2024-05-09T14:15:37.803Z,23.60
2024-05-09T14:20:44.662Z,23.72
2024-05-09T14:25:54.397Z,22.01
2024-05-09T14:31:04.523Z,23.24
2024-05-09T14:36:11.948Z,22.32
2024-05-09T14:41:18.746Z,22.34
2024-05-09T14:46:25.945Z,22.57
2024-05-09T14:51:36.470Z,22.60
2024-05-09T14:56:43.672Z,23.14
2024-05-09T15:01:50.368Z,23.05
2024-05-09T15:06:57.415Z,21.62
2024-05-09T15:12:04.398Z,22.11
2024-05-09T15:17:12.003Z,22.17
2024-05-09T15:22:19.586Z,21.47
2024-05-09T15:27:26.420Z,21.70
2024-05-09T15:32:33.214Z,21.70
2024-05-09T15:37:40.053Z,21.67
2024-05-09T15:42:46.707Z,20.94
2024-05-09T15:47:53.391Z,20.17
2024-05-09T15:53:00.177Z,20.27
2024-05-09T15:58:07.912Z,20.08
2024-05-09T16:03:15.563Z,19.50
2024-05-09T16:08:21.440Z,19.68
2024-05-09T16:13:28.073Z,20.08
2024-05-09T16:18:34.816Z,20.19
2024-05-09T16:23:41.678Z,20.30
2024-05-09T16:28:49.088Z,20.76
2024-05-09T16:33:56.087Z,20.80
2024-05-09T16:39:03.042Z,20.65
2024-05-09T16:44:09.731Z,20.88
2024-05-09T16:49:16.435Z,21.32
2024-05-09T16:54:23.363Z,21.49
2024-05-09T16:59:30.314Z,21.51
2024-05-09T17:04:37.064Z,21.56
2024-05-09T17:09:44.265Z,21.97
2024-05-09T17:14:50.978Z,22.24
2024-05-09T17:19:57.566Z,22.30
2024-05-09T17:25:05.503Z,22.83
2024-05-09T17:30:17.936Z,23.12
2024-05-09T17:35:32.164Z,23.78
2024-05-09T17:40:39.559Z,24.26
2024-05-09T17:45:47.306Z,24.86
2024-05-09T17:50:53.898Z,25.51
2024-05-09T17:56:01.369Z,26.20
2024-05-09T18:01:08.315Z,26.84
2024-05-09T18:06:16.436Z,27.40
2024-05-09T18:11:23.739Z,28.20
2024-05-09T18:16:30.546Z,28.77
2024-05-09T18:21:37.552Z,29.57
2024-05-09T18:26:44.268Z,30.21
2024-05-09T18:31:50.896Z,30.50
2024-05-09T18:36:58.246Z,30.97
2024-05-09T18:42:05.711Z,31.55
2024-05-09T18:47:12.940Z,31.96
2024-05-09T18:52:20.732Z,32.41
2024-05-09T18:57:27.498Z,33.00
2024-05-09T19:02:34.739Z,33.64
2024-05-09T19:07:42.725Z,34.30
2024-05-09T19:12:50.477Z,35.16
2024-05-09T19:17:57.762Z,36.01
2024-05-09T19:23:05.429Z,36.55
2024-05-09T19:28:12.405Z,37.18
2024-05-09T19:33:19.245Z,37.84
2024-05-09T19:38:26.059Z,38.26
2024-05-09T19:43:35.890Z,39.14
2024-05-09T19:48:43.501Z,39.78
2024-05-09T19:53:56.259Z,40.25
2024-05-09T19:59:03.265Z,41.08
2024-05-09T20:04:10.008Z,41.79
2024-05-09T20:09:16.732Z,42.66
2024-05-09T20:14:23.467Z,43.51
2024-05-09T20:19:30.405Z,43.96
2024-05-09T20:24:37.284Z,44.79
2024-05-09T20:29:44.373Z,45.37
2024-05-09T20:34:51.959Z,45.99
2024-05-09T20:39:58.711Z,46.53
2024-05-09T20:45:06.069Z,46.94
2024-05-09T20:50:23.056Z,47.41
2024-05-09T20:55:35.495Z,48.16
2024-05-09T21:00:44.798Z,48.78
2024-05-09T21:05:53.340Z,48.92
2024-05-09T21:11:00.145Z,49.30
2024-05-09T21:16:08.194Z,49.84
2024-05-09T21:21:14.975Z,50.46
2024-05-09T21:26:23.666Z,50.79
2024-05-09T21:31:30.388Z,51.35
2024-05-09T21:36:37.244Z,51.90
2024-05-09T21:41:43.915Z,52.84
2024-05-09T21:46:50.538Z,53.24
2024-05-09T21:51:57.230Z,53.60
2024-05-09T21:57:06.339Z,54.23
2024-05-09T22:02:13.232Z,54.54
2024-05-09T22:07:20.086Z,54.85
2024-05-09T22:12:26.966Z,55.20
2024-05-09T22:17:34.002Z,55.43
2024-05-09T22:22:41.422Z,55.92
2024-05-09T22:27:49.248Z,56.40
2024-05-09T22:32:56.095Z,56.86
2024-05-09T22:38:03.281Z,57.40
2024-05-09T22:43:10.307Z,57.74
2024-05-09T22:48:17.380Z,58.17
2024-05-09T22:53:25.916Z,58.42
2024-05-09T22:58:32.963Z,58.84
2024-05-09T23:03:41.437Z,59.21
2024-05-09T23:08:48.337Z,59.61
2024-05-09T23:13:55.021Z,59.93
2024-05-09T23:19:01.917Z,60.36
2024-05-09T23:24:08.954Z,60.54
2024-05-09T23:29:16.158Z,60.70
2024-05-09T23:34:22.992Z,60.94
2024-05-09T23:39:29.937Z,61.26
2024-05-09T23:44:36.678Z,61.52
2024-05-09T23:49:43.492Z,61.90
2024-05-09T23:54:50.366Z,62.34
2024-05-09T23:59:59.987Z,62.73
